createdAt,value
2023-03-15T00:02:01.976Z,10.07
2023-03-15T00:04:29.778Z,16.70
2023-03-15T00:06:57.134Z,11.32
2023-03-15T00:09:24.689Z,11.57
2023-03-15T00:12:03.488Z,13.40
2023-03-15T00:17:03.738Z,12.02
2023-03-15T00:19:31.042Z,12.43
2023-03-15T00:21:58.307Z,8.85
2023-03-15T00:24:25.652Z,12.23
2023-03-15T00:26:52.917Z,13.02
2023-03-15T00:29:20.639Z,14.00
2023-03-15T00:31:47.855Z,11.07
2023-03-15T00:34:15.302Z,10.95
2023-03-15T00:36:43.772Z,10.83
2023-03-15T00:39:11.596Z,8.57
2023-03-15T00:41:39.976Z,5.63
2023-03-15T00:44:07.215Z,4.22
2023-03-15T00:46:34.491Z,6.07
2023-03-15T00:49:01.739Z,5.53
2023-03-15T00:51:30.092Z,4.72
2023-03-15T00:56:27.055Z,8.55
2023-03-15T00:58:54.331Z,5.70
2023-03-15T01:01:29.771Z,5.18
2023-03-15T01:03:57.833Z,4.70
2023-03-15T01:06:28.832Z,6.40
2023-03-15T01:08:57.354Z,6.88
2023-03-15T01:11:28.122Z,6.13
2023-03-15T01:13:58.167Z,6.15
2023-03-15T01:16:27.304Z,5.68
2023-03-15T01:18:54.956Z,5.90
2023-03-15T01:21:23.995Z,6.68
2023-03-15T01:23:51.920Z,4.43
2023-03-15T01:26:22.577Z,5.20
2023-03-15T01:28:50.153Z,6.25
2023-03-15T01:31:24.457Z,10.63
2023-03-15T01:33:52.728Z,6.18
2023-03-15T01:38:47.362Z,5.05
2023-03-15T01:41:17.919Z,6.53
2023-03-15T01:43:48.733Z,5.47
2023-03-15T01:46:20.067Z,7.45
2023-03-15T01:49:14.184Z,7.90
2023-03-15T01:51:54.784Z,6.45
2023-03-15T01:54:30.058Z,5.30
2023-03-15T01:57:13.206Z,6.22
2023-03-15T01:59:51.389Z,4.60
2023-03-15T02:02:23.047Z,6.70
2023-03-15T02:05:10.014Z,7.45
2023-03-15T02:07:50.258Z,4.80
2023-03-15T02:10:34.285Z,5.35
2023-03-15T02:13:03.460Z,7.25
2023-03-15T02:15:31.645Z,6.65
2023-03-15T02:18:05.303Z,6.68
2023-03-15T02:21:31.914Z,7.60
2023-03-15T02:24:25.044Z,7.85
2023-03-15T02:26:57.614Z,10.80
2023-03-15T02:29:28.617Z,10.77
2023-03-15T02:31:58.037Z,9.98
2023-03-15T02:34:26.626Z,13.25
2023-03-15T02:36:54.970Z,11.73
2023-03-15T02:41:57.992Z,11.15
2023-03-15T02:44:38.350Z,9.77
2023-03-15T02:47:16.769Z,11.07
2023-03-15T02:49:49.389Z,13.45
2023-03-15T02:52:18.257Z,8.90
2023-03-15T02:54:45.641Z,11.07
2023-03-15T02:57:15.670Z,9.45
2023-03-15T02:59:44.004Z,14.57
2023-03-15T03:02:13.254Z,12.02
2023-03-15T03:04:42.788Z,11.30
2023-03-15T03:07:10.471Z,8.32
2023-03-15T03:10:06.690Z,13.57
2023-03-15T03:12:44.258Z,10.68
2023-03-15T03:15:12.171Z,15.05
2023-03-15T03:17:39.611Z,11.45
2023-03-15T03:20:13.808Z,12.27
2023-03-15T03:22:46.078Z,12.90
2023-03-15T03:25:13.482Z,10.98
2023-03-15T03:27:41.475Z,15.60
2023-03-15T03:30:14.020Z,16.77
2023-03-15T03:32:46.550Z,7.00
2023-03-15T03:35:16.091Z,11.52
2023-03-15T03:37:43.693Z,8.75
2023-03-15T03:40:16.110Z,13.63
2023-03-15T03:45:11.981Z,9.55
2023-03-15T03:47:43.571Z,7.60
2023-03-15T03:50:12.092Z,8.48
2023-03-15T03:52:40.028Z,9.13
2023-03-15T03:55:13.822Z,10.00
2023-03-15T03:57:43.049Z,6.40
2023-03-15T04:00:15.864Z,6.38
2023-03-15T04:02:44.191Z,6.78
2023-03-15T04:05:14.033Z,6.80
2023-03-15T04:07:42.054Z,4.75
2023-03-15T04:10:14.994Z,7.25
2023-03-15T04:12:45.990Z,7.32
2023-03-15T04:15:14.830Z,7.35
2023-03-15T04:17:42.635Z,7.18
2023-03-15T04:20:13.059Z,6.28
2023-03-15T04:22:49.774Z,7.60
2023-03-15T04:25:35.371Z,9.35
2023-03-15T04:28:25.462Z,7.03
2023-03-15T04:31:27.298Z,13.33
2023-03-15T04:34:06.654Z,8.25
2023-03-15T04:36:54.829Z,10.25
2023-03-15T04:39:52.583Z,8.73
2023-03-15T04:42:46.068Z,8.80
2023-03-15T04:45:29.996Z,9.48
2023-03-15T04:48:15.792Z,8.00
2023-03-15T04:51:01.355Z,7.45
2023-03-15T04:53:51.860Z,9.25
2023-03-15T04:56:37.874Z,9.13
2023-03-15T04:59:20.148Z,10.73
2023-03-15T05:02:05.656Z,8.32
2023-03-15T05:04:56.131Z,10.88
2023-03-15T05:07:38.619Z,10.05
2023-03-15T05:10:22.455Z,8.73
2023-03-15T05:13:12.893Z,9.73
2023-03-15T05:15:57.720Z,12.88
2023-03-15T05:18:47.721Z,13.55
2023-03-15T05:21:32.888Z,8.80
2023-03-15T05:24:26.367Z,9.13
2023-03-15T05:26:59.743Z,11.95
2023-03-15T05:29:58.993Z,11.82
2023-03-15T05:32:46.458Z,9.93
2023-03-15T05:35:46.624Z,11.32
2023-03-15T05:38:39.747Z,12.32
2023-03-15T05:44:23.183Z,9.68
2023-03-15T05:47:20.410Z,8.45
2023-03-15T05:50:08.384Z,10.65
2023-03-15T05:52:44.647Z,11.50
2023-03-15T05:55:20.798Z,7.65
2023-03-15T05:58:17.145Z,8.00
2023-03-15T06:00:57.556Z,7.28
2023-03-15T06:03:44.476Z,12.02
2023-03-15T06:06:19.916Z,11.13
2023-03-15T06:08:47.270Z,12.30
2023-03-15T06:11:14.754Z,9.00
2023-03-15T06:13:41.957Z,10.50
2023-03-15T06:16:16.827Z,13.40
2023-03-15T06:18:47.506Z,8.13
2023-03-15T06:21:14.709Z,13.07
2023-03-15T06:23:42.148Z,10.67
2023-03-15T06:26:10.485Z,11.88
2023-03-15T06:28:37.750Z,12.53
2023-03-15T06:31:11.865Z,10.75
2023-03-15T06:33:48.604Z,10.65
2023-03-15T06:36:15.981Z,12.55
2023-03-15T06:38:43.329Z,13.53
2023-03-15T06:41:15.486Z,12.57
2023-03-15T06:43:43.271Z,12.85
2023-03-15T06:46:10.876Z,12.67
2023-03-15T06:48:38.159Z,10.52
2023-03-15T06:51:07.058Z,10.45
2023-03-15T06:53:34.786Z,13.10
2023-03-15T06:56:02.284Z,9.13
2023-03-15T06:58:29.476Z,11.77
2023-03-15T07:00:56.690Z,11.55
2023-03-15T07:03:24.016Z,12.00
2023-03-15T07:05:54.132Z,14.45
2023-03-15T07:08:24.272Z,11.30
2023-03-15T07:10:52.173Z,13.10
2023-03-15T07:13:20.226Z,10.85
2023-03-15T07:15:55.863Z,8.25
2023-03-15T07:18:23.599Z,9.25
2023-03-15T07:20:59.530Z,8.77
2023-03-15T07:23:27.492Z,6.75
2023-03-15T07:25:56.146Z,6.40
2023-03-15T07:28:25.540Z,5.18
2023-03-15T07:30:57.940Z,7.43
2023-03-15T07:33:27.402Z,7.35
2023-03-15T07:35:55.383Z,5.57
2023-03-15T07:38:27.032Z,7.60
2023-03-15T07:40:54.398Z,6.20
2023-03-15T07:43:22.034Z,5.45
2023-03-15T07:45:51.448Z,7.95
2023-03-15T07:48:18.789Z,6.07
2023-03-15T07:50:46.479Z,6.00
2023-03-15T07:53:13.825Z,6.43
2023-03-15T07:55:41.067Z,7.40
2023-03-15T07:58:08.248Z,6.22
2023-03-15T08:00:35.454Z,7.53
2023-03-15T08:03:02.711Z,6.97
2023-03-15T08:05:30.458Z,9.35
2023-03-15T08:07:57.701Z,10.65
2023-03-15T08:10:24.914Z,7.18
2023-03-15T08:12:52.134Z,8.52
2023-03-15T08:15:20.554Z,8.23
2023-03-15T08:20:19.604Z,6.90
2023-03-15T08:22:49.123Z,9.70
2023-03-15T08:25:20.893Z,7.38
2023-03-15T08:27:49.498Z,5.60
2023-03-15T08:30:21.011Z,7.95
2023-03-15T08:32:50.207Z,7.35
2023-03-15T08:35:20.148Z,6.75
2023-03-15T08:37:48.133Z,8.32
2023-03-15T08:40:19.291Z,9.52
2023-03-15T08:42:46.822Z,4.65
2023-03-15T08:45:14.044Z,5.67
2023-03-15T08:47:41.461Z,10.65
2023-03-15T08:50:13.364Z,3.30
2023-03-15T08:52:41.616Z,7.28
2023-03-15T08:55:09.947Z,8.40
2023-03-15T09:00:09.575Z,8.52
2023-03-15T09:02:37.677Z,4.13
2023-03-15T09:05:07.385Z,6.05
2023-03-15T09:07:34.730Z,3.58
2023-03-15T09:10:05.413Z,3.72
2023-03-15T09:12:32.795Z,5.35
2023-03-15T09:15:00.035Z,5.63
2023-03-15T09:17:27.730Z,4.97
2023-03-15T09:19:54.951Z,4.15
2023-03-15T09:22:38.589Z,5.38
2023-03-15T09:25:08.294Z,5.57
2023-03-15T09:27:36.288Z,5.30
2023-03-15T09:30:05.012Z,3.53
2023-03-15T09:32:36.466Z,4.50
2023-03-15T09:35:11.526Z,5.97
2023-03-15T09:37:38.730Z,3.92
2023-03-15T09:40:08.226Z,4.78
2023-03-15T09:42:38.171Z,5.32
2023-03-15T09:45:34.517Z,4.55
2023-03-15T09:48:35.697Z,5.05
2023-03-15T09:51:27.819Z,4.70
2023-03-15T09:54:00.904Z,4.93
2023-03-15T09:56:36.988Z,4.22
2023-03-15T09:59:06.008Z,4.32
2023-03-15T10:01:42.091Z,4.75
2023-03-15T10:04:34.935Z,3.20
2023-03-15T10:07:04.213Z,5.35
2023-03-15T10:09:33.855Z,9.90
2023-03-15T10:12:16.919Z,5.05
2023-03-15T10:15:02.623Z,6.13
2023-03-15T10:17:58.733Z,4.05
2023-03-15T10:20:34.742Z,4.63
2023-03-15T10:23:15.746Z,6.80
2023-03-15T10:25:44.665Z,5.47
2023-03-15T10:28:25.101Z,3.58
2023-03-15T10:30:52.655Z,6.13
2023-03-15T10:33:39.194Z,3.75
2023-03-15T10:36:25.951Z,8.00
2023-03-15T10:38:53.354Z,7.38
2023-03-15T10:41:45.664Z,6.40
2023-03-15T10:44:24.565Z,5.10
2023-03-15T10:47:23.524Z,8.10
2023-03-15T10:49:58.506Z,5.53
2023-03-15T10:52:39.754Z,6.20
2023-03-15T10:55:14.045Z,7.25
2023-03-15T10:57:57.387Z,6.20
2023-03-15T11:00:36.454Z,3.80
2023-03-15T11:03:17.902Z,4.55
2023-03-15T11:05:52.050Z,7.57
2023-03-15T11:08:36.299Z,3.83
2023-03-15T11:11:03.696Z,5.03
2023-03-15T11:13:36.729Z,6.50
2023-03-15T11:16:15.221Z,4.85
2023-03-15T11:19:03.657Z,5.32
2023-03-15T11:21:35.089Z,4.20
2023-03-15T11:24:05.772Z,6.05
2023-03-15T11:26:39.769Z,8.50
2023-03-15T11:29:22.653Z,9.02
2023-03-15T11:31:51.467Z,6.57
2023-03-15T11:35:03.484Z,4.68
2023-03-15T11:37:48.973Z,6.95
2023-03-15T11:40:25.731Z,5.13
2023-03-15T11:43:08.870Z,9.00
2023-03-15T11:45:51.592Z,3.55
2023-03-15T11:49:15.674Z,5.90
2023-03-15T11:51:43.216Z,5.13
2023-03-15T11:54:20.020Z,4.30
2023-03-15T11:57:17.847Z,5.53
2023-03-15T11:59:46.217Z,3.47
2023-03-15T12:02:14.181Z,4.25
2023-03-15T12:04:51.187Z,4.03
2023-03-15T12:07:18.888Z,6.85
2023-03-15T12:10:17.694Z,3.67
2023-03-15T12:12:57.812Z,6.72
2023-03-15T12:15:25.103Z,3.03
2023-03-15T12:17:58.392Z,3.70
2023-03-15T12:20:43.009Z,4.60
2023-03-15T12:23:28.923Z,6.97
2023-03-15T12:26:02.140Z,4.35
2023-03-15T12:28:45.458Z,3.75
2023-03-15T12:31:14.463Z,3.50
2023-03-15T12:33:58.625Z,4.10
2023-03-15T12:36:41.544Z,5.72
2023-03-15T12:39:17.713Z,6.95
2023-03-15T12:41:51.604Z,4.43
2023-03-15T12:44:38.465Z,3.45
2023-03-15T12:47:12.038Z,3.15
2023-03-15T12:49:43.559Z,5.20
2023-03-15T12:52:35.226Z,2.38
2023-03-15T12:55:18.455Z,4.55
2023-03-15T12:57:50.517Z,3.60
2023-03-15T13:00:30.429Z,6.03
2023-03-15T13:03:19.449Z,4.43
2023-03-15T13:06:35.295Z,4.68
2023-03-15T13:09:21.400Z,2.63
2023-03-15T13:12:15.424Z,3.30
2023-03-15T13:15:12.580Z,5.78
2023-03-15T13:17:44.409Z,5.20
2023-03-15T13:20:50.687Z,3.97
2023-03-15T13:23:30.666Z,6.45
2023-03-15T13:26:25.619Z,6.32
2023-03-15T13:29:22.359Z,4.20
2023-03-15T13:32:08.449Z,4.28
2023-03-15T13:34:35.941Z,4.05
2023-03-15T13:37:03.416Z,4.37
2023-03-15T13:39:35.294Z,6.47
2023-03-15T13:42:18.354Z,4.00
2023-03-15T13:44:45.842Z,4.53
2023-03-15T13:47:22.435Z,5.00
2023-03-15T13:49:53.131Z,6.45
2023-03-15T13:52:20.990Z,3.78
2023-03-15T13:54:48.977Z,4.28
2023-03-15T13:57:19.857Z,4.97
2023-03-15T14:00:17.836Z,3.70
2023-03-15T14:03:00.864Z,5.75
2023-03-15T14:05:36.615Z,7.35
2023-03-15T14:08:15.607Z,8.32
2023-03-15T14:10:42.864Z,7.00
2023-03-15T14:13:26.421Z,6.80
2023-03-15T14:16:01.648Z,5.05
2023-03-15T14:18:38.990Z,6.05
2023-03-15T14:21:32.393Z,6.50
2023-03-15T14:24:06.805Z,5.78
2023-03-15T14:26:36.334Z,7.43
2023-03-15T14:29:29.997Z,4.45
2023-03-15T14:32:04.207Z,8.10
2023-03-15T14:34:44.129Z,3.83
2023-03-15T14:37:39.023Z,9.38
2023-03-15T14:40:35.934Z,8.98
2023-03-15T14:43:05.846Z,8.25
2023-03-15T14:45:35.417Z,7.18
2023-03-15T14:48:08.657Z,5.13
2023-03-15T14:50:39.813Z,5.65
2023-03-15T14:53:09.963Z,5.35
2023-03-15T14:55:38.145Z,5.97
2023-03-15T14:58:22.354Z,12.07
2023-03-15T15:00:53.797Z,10.23
2023-03-15T15:03:38.312Z,8.60
2023-03-15T15:06:09.720Z,6.20
2023-03-15T15:08:40.239Z,7.13
2023-03-15T15:11:11.217Z,10.20
2023-03-15T15:13:40.205Z,6.35
2023-03-15T15:16:08.549Z,5.53
2023-03-15T15:18:37.979Z,6.28
2023-03-15T15:21:12.127Z,6.40
2023-03-15T15:23:55.264Z,7.88
2023-03-15T15:26:28.869Z,7.57
2023-03-15T15:28:57.123Z,6.82
2023-03-15T15:31:26.974Z,13.95
2023-03-15T15:33:56.627Z,9.30
2023-03-15T15:36:44.006Z,9.75
2023-03-15T15:39:27.660Z,9.18
2023-03-15T15:41:55.058Z,15.18
2023-03-15T15:44:25.743Z,14.18
2023-03-15T15:46:53.359Z,22.90
2023-03-15T15:49:21.261Z,13.38
2023-03-15T15:51:50.165Z,13.55
2023-03-15T15:54:26.771Z,11.57
2023-03-15T15:57:01.020Z,10.80
2023-03-15T15:59:28.517Z,11.68
2023-03-15T16:02:01.035Z,10.20
2023-03-15T16:04:29.466Z,10.15
2023-03-15T16:07:02.063Z,11.77
2023-03-15T16:09:36.273Z,7.55
2023-03-15T16:12:12.348Z,10.25
2023-03-15T16:14:40.009Z,7.22
2023-03-15T16:17:24.209Z,8.48
2023-03-15T16:19:52.961Z,11.18
2023-03-15T16:22:23.128Z,6.00
2023-03-15T16:24:55.027Z,10.82
2023-03-15T16:27:27.067Z,10.60
2023-03-15T16:32:44.399Z,11.50
2023-03-15T16:35:17.283Z,10.00
2023-03-15T16:37:46.090Z,7.93
2023-03-15T16:40:27.335Z,8.35
2023-03-15T16:42:55.624Z,7.55
2023-03-15T16:47:51.266Z,7.90
2023-03-15T16:50:19.771Z,8.30
2023-03-15T16:52:51.547Z,9.05
2023-03-15T16:55:27.077Z,15.05
2023-03-15T16:57:54.812Z,10.02
2023-03-15T17:00:23.035Z,8.05
2023-03-15T17:02:52.458Z,6.65
2023-03-15T17:05:21.125Z,8.32
2023-03-15T17:07:52.761Z,9.63
2023-03-15T17:10:27.595Z,12.88
2023-03-15T17:12:56.559Z,11.82
2023-03-15T17:15:27.400Z,14.82
2023-03-15T17:17:58.455Z,7.55
2023-03-15T17:20:28.622Z,8.10
2023-03-15T17:23:05.347Z,8.00
2023-03-15T17:25:34.437Z,6.53
2023-03-15T17:28:01.814Z,8.95
2023-03-15T17:30:35.916Z,9.47
2023-03-15T17:33:03.579Z,10.40
2023-03-15T17:35:58.743Z,10.75
2023-03-15T17:38:34.033Z,12.90
2023-03-15T17:41:01.953Z,12.25
2023-03-15T17:43:29.416Z,8.40
2023-03-15T17:45:56.684Z,7.27
2023-03-15T17:48:23.934Z,11.05
2023-03-15T17:50:51.197Z,9.63
2023-03-15T17:53:21.264Z,10.23
2023-03-15T17:55:49.324Z,11.88
2023-03-15T17:58:22.776Z,14.45
2023-03-15T18:00:53.722Z,12.23
2023-03-15T18:03:22.540Z,10.90
2023-03-15T18:05:50.576Z,10.48
2023-03-15T18:08:21.325Z,11.98
2023-03-15T18:10:50.110Z,9.82
2023-03-15T18:13:21.723Z,9.18
2023-03-15T18:15:50.362Z,11.40
2023-03-15T18:18:18.260Z,9.15
2023-03-15T18:20:46.944Z,9.77
2023-03-15T18:23:16.237Z,7.57
2023-03-15T18:25:43.972Z,11.38
2023-03-15T18:28:11.885Z,10.68
2023-03-15T18:30:39.170Z,13.70
2023-03-15T18:33:06.986Z,15.55
2023-03-15T18:35:36.876Z,13.07
2023-03-15T18:38:05.379Z,14.50
2023-03-15T18:40:34.696Z,11.90
2023-03-15T18:43:04.312Z,5.50
2023-03-15T18:45:35.731Z,15.98
2023-03-15T18:48:04.387Z,8.25
2023-03-15T18:50:32.404Z,12.57
2023-03-15T18:53:00.314Z,10.77
2023-03-15T18:55:27.625Z,12.23
2023-03-15T18:57:55.669Z,11.60
2023-03-15T19:00:29.880Z,11.05
2023-03-15T19:03:02.067Z,10.70
2023-03-15T19:05:32.291Z,12.18
2023-03-15T19:07:59.716Z,7.75
2023-03-15T19:10:27.551Z,12.25
2023-03-15T19:12:55.054Z,9.48
2023-03-15T19:15:23.839Z,6.18
2023-03-15T19:17:54.637Z,9.05
2023-03-15T19:20:23.785Z,16.75
2023-03-15T19:22:52.670Z,9.85
2023-03-15T19:25:20.864Z,12.95
2023-03-15T19:27:48.734Z,9.68
2023-03-15T19:30:21.066Z,12.18
2023-03-15T19:32:50.252Z,8.55
2023-03-15T19:35:19.578Z,9.30
2023-03-15T19:37:47.779Z,12.02
2023-03-15T19:40:16.709Z,6.65
2023-03-15T19:42:44.500Z,7.65
2023-03-15T19:45:12.469Z,11.32
2023-03-15T19:47:40.062Z,11.30
2023-03-15T19:50:10.782Z,9.73
2023-03-15T19:52:42.299Z,14.88
2023-03-15T19:55:09.877Z,11.82
2023-03-15T19:57:37.220Z,8.95
2023-03-15T20:00:06.444Z,11.45
2023-03-15T20:02:33.843Z,9.73
2023-03-15T20:05:01.216Z,10.67
2023-03-15T20:07:29.801Z,10.23
2023-03-15T20:09:57.000Z,9.55
2023-03-15T20:12:24.267Z,15.80
2023-03-15T20:14:51.457Z,9.52
2023-03-15T20:17:20.784Z,13.70
2023-03-15T20:19:48.063Z,18.08
2023-03-15T20:22:15.322Z,8.57
2023-03-15T20:24:44.407Z,11.48
2023-03-15T20:27:12.155Z,11.98
2023-03-15T20:29:39.430Z,8.50
2023-03-15T20:32:07.001Z,15.07
2023-03-15T20:34:35.167Z,12.25
2023-03-15T20:37:02.725Z,9.57
2023-03-15T20:39:30.286Z,13.90
2023-03-15T20:41:57.581Z,13.13
2023-03-15T20:44:25.145Z,7.80
2023-03-15T20:46:56.839Z,11.82
2023-03-15T20:49:24.294Z,10.48
2023-03-15T20:51:51.679Z,9.90
2023-03-15T20:54:18.961Z,11.77
2023-03-15T20:56:46.277Z,9.55
2023-03-15T20:59:14.159Z,8.85
2023-03-15T21:01:41.448Z,11.43
2023-03-15T21:04:08.732Z,10.98
2023-03-15T21:06:36.068Z,12.98
2023-03-15T21:09:03.681Z,12.35
2023-03-15T21:11:31.184Z,12.82
2023-03-15T21:13:58.822Z,11.00
2023-03-15T21:16:26.635Z,6.28
2023-03-15T21:18:55.048Z,6.57
2023-03-15T21:23:49.523Z,9.20
2023-03-15T21:26:17.301Z,8.00
2023-03-15T21:28:44.684Z,11.05
2023-03-15T21:31:12.274Z,7.00
2023-03-15T21:33:40.191Z,9.77
2023-03-15T21:36:08.162Z,8.65
2023-03-15T21:38:35.634Z,5.93
2023-03-15T21:41:09.465Z,7.63
2023-03-15T21:43:38.028Z,8.75
2023-03-15T21:46:09.153Z,12.48
2023-03-15T21:48:37.357Z,11.40
2023-03-15T21:51:06.210Z,6.72
2023-03-15T21:53:34.540Z,10.55
2023-03-15T21:58:30.450Z,9.82
2023-03-15T22:01:06.944Z,9.20
2023-03-15T22:03:36.093Z,8.23
2023-03-15T22:06:03.931Z,8.30
2023-03-15T22:08:33.914Z,6.50
2023-03-15T22:11:01.222Z,6.68
2023-03-15T22:13:30.198Z,9.30
2023-03-15T22:15:57.752Z,7.78
2023-03-15T22:18:28.750Z,13.35
2023-03-15T22:20:57.116Z,7.38
2023-03-15T22:25:56.123Z,8.82
2023-03-15T22:28:27.153Z,6.20
2023-03-15T22:30:54.663Z,10.40
2023-03-15T22:33:23.042Z,7.43
2023-03-15T22:35:58.650Z,7.30
2023-03-15T22:38:27.135Z,7.47
2023-03-15T22:41:03.557Z,9.40
2023-03-15T22:43:31.090Z,9.52
2023-03-15T22:45:58.479Z,4.82
2023-03-15T22:48:26.268Z,8.03
2023-03-15T22:51:16.297Z,9.10
2023-03-15T22:53:44.030Z,6.43
2023-03-15T22:56:14.724Z,8.50
2023-03-15T22:58:42.794Z,7.40
2023-03-15T23:01:10.677Z,6.00
2023-03-15T23:03:38.047Z,8.13
2023-03-15T23:06:05.713Z,6.47
2023-03-15T23:08:32.987Z,6.30
2023-03-15T23:11:00.571Z,6.95
2023-03-15T23:13:27.942Z,8.45
2023-03-15T23:15:55.399Z,7.47
2023-03-15T23:18:22.760Z,8.13
2023-03-15T23:20:50.080Z,6.18
2023-03-15T23:23:17.395Z,6.00
2023-03-15T23:25:46.031Z,6.25
2023-03-15T23:28:14.012Z,5.72
2023-03-15T23:30:41.323Z,6.47
2023-03-15T23:33:08.767Z,10.38
2023-03-15T23:35:36.208Z,12.27
2023-03-15T23:38:03.761Z,16.13
2023-03-15T23:40:30.993Z,11.67
2023-03-15T23:43:00.858Z,10.15
2023-03-15T23:45:30.151Z,9.68
2023-03-15T23:47:58.053Z,8.73
2023-03-15T23:50:26.480Z,7.35
2023-03-15T23:52:56.078Z,6.38
2023-03-15T23:55:24.545Z,8.85
2023-03-15T23:57:52.240Z,13.93
